Terminal Aerodrome Forecast
Issued by NWS Corpus Christi, TX

Home | Current Version | Previous Version | Text Only | Print | Product List | Glossary On
Versions: 1 2 3 4 5 6 7 8 9 10 11 12 13 14 15 16 17 18 19
000
FTUS44 KCRP 241144
TAFVCT
TAF
KVCT 241144Z 2412/2512 14008KT P6SM BKN015 OVC025
     FM241400 16017G25KT P6SM SCT020 OVC150
     FM241900 17015KT P6SM VCTS SCT030CB
     FM250100 17010KT P6SM SCT010 BKN025
     FM250700 15008KT P6SM BKN010 OVC030=

USA.gov is the U.S. government's official web portal to all federal, state and local government web resources and services.